sensor_id;sensor_type;location;lat;lon;timestamp;pressure;altitude;pressure_sealevel;temperature;humidity
80566;BME280;69915;54.862;10.730;2023-08-06T00:01:48;100786.38;;;15.73;87.10
80566;BME280;69915;54.862;10.730;2023-08-06T00:04:13;100790.75;;;15.83;87.19
80566;BME280;69915;54.862;10.730;2023-08-06T00:06:39;100786.38;;;15.73;87.41
80566;BME280;69915;54.862;10.730;2023-08-06T00:09:05;100787.19;;;15.74;87.49
80566;BME280;69915;54.862;10.730;2023-08-06T00:11:30;100797.84;;;15.84;87.20
80566;BME280;69915;54.862;10.730;2023-08-06T00:13:55;100797.22;;;15.78;87.10
80566;BME280;69915;54.862;10.730;2023-08-06T00:16:21;100778.94;;;15.65;87.22
80566;BME280;69915;54.862;10.730;2023-08-06T00:18:46;100778.94;;;15.65;87.56
80566;BME280;69915;54.862;10.730;2023-08-06T00:21:12;100793.81;;;15.82;86.96
80566;BME280;69915;54.862;10.730;2023-08-06T00:23:39;100785.56;;;15.73;87.19
80566;BME280;69915;54.862;10.730;2023-08-06T00:26:04;100766.28;;;15.56;87.52
80566;BME280;69915;54.862;10.730;2023-08-06T00:28:30;100780.53;;;15.66;87.48
80566;BME280;69915;54.862;10.730;2023-08-06T00:30:56;100771.78;;;15.64;87.24
80566;BME280;69915;54.862;10.730;2023-08-06T00:33:22;100788.94;;;15.78;87.22
80566;BME280;69915;54.862;10.730;2023-08-06T00:35:48;100770.47;;;15.70;87.57
80566;BME280;69915;54.862;10.730;2023-08-06T00:38:13;100769.16;;;15.76;86.95
80566;BME280;69915;54.862;10.730;2023-08-06T00:40:39;100792.97;;;15.98;86.70
80566;BME280;69915;54.862;10.730;2023-08-06T00:43:04;100773.19;;;15.88;87.16
80566;BME280;69915;54.862;10.730;2023-08-06T00:45:30;100792.47;;;16.05;86.97
80566;BME280;69915;54.862;10.730;2023-08-06T00:47:59;100777.91;;;15.96;86.70
80566;BME280;69915;54.862;10.730;2023-08-06T00:50:25;100807.38;;;16.12;87.26
80566;BME280;69915;54.862;10.730;2023-08-06T00:52:51;100801.38;;;16.10;86.68
80566;BME280;69915;54.862;10.730;2023-08-06T00:55:17;100778.03;;;15.99;86.99
80566;BME280;69915;54.862;10.730;2023-08-06T00:57:42;100785.84;;;15.97;87.10
80566;BME280;69915;54.862;10.730;2023-08-06T01:00:09;100797.34;;;16.08;87.27
80566;BME280;69915;54.862;10.730;2023-08-06T01:02:34;100784.72;;;15.90;87.35
80566;BME280;69915;54.862;10.730;2023-08-06T01:05:00;100787.97;;;15.92;87.34
80566;BME280;69915;54.862;10.730;2023-08-06T01:10:14;100801.91;;;15.95;87.50
80566;BME280;69915;54.862;10.730;2023-08-06T01:13:00;100799.00;;;15.92;87.78
80566;BME280;69915;54.862;10.730;2023-08-06T01:15:30;100795.75;;;15.90;87.58
80566;BME280;69915;54.862;10.730;2023-08-06T01:17:58;100798.16;;;15.91;87.42
80566;BME280;69915;54.862;10.730;2023-08-06T01:20:31;100779.22;;;15.90;87.52
80566;BME280;69915;54.862;10.730;2023-08-06T01:22:56;100772.56;;;15.82;86.84
80566;BME280;69915;54.862;10.730;2023-08-06T01:25:26;100763.31;;;15.87;86.06
80566;BME280;69915;54.862;10.730;2023-08-06T01:27:59;100773.34;;;16.00;86.51
80566;BME280;69915;54.862;10.730;2023-08-06T01:30:31;100767.16;;;16.03;86.23
80566;BME280;69915;54.862;10.730;2023-08-06T01:33:04;100764.59;;;15.98;86.24
80566;BME280;69915;54.862;10.730;2023-08-06T01:35:31;100746.91;;;15.90;86.53
80566;BME280;69915;54.862;10.730;2023-08-06T01:37:59;100742.22;;;15.91;86.22
80566;BME280;69915;54.862;10.730;2023-08-06T01:40:25;100750.47;;;15.99;86.44
80566;BME280;69915;54.862;10.730;2023-08-06T01:42:52;100740.63;;;15.90;86.17
80566;BME280;69915;54.862;10.730;2023-08-06T01:45:17;100726.34;;;15.79;86.34
80566;BME280;69915;54.862;10.730;2023-08-06T01:47:43;100733.47;;;15.89;86.28
80566;BME280;69915;54.862;10.730;2023-08-06T01:50:09;100744.50;;;15.89;86.59
80566;BME280;69915;54.862;10.730;2023-08-06T01:52:34;100754.25;;;15.86;86.78
80566;BME280;69915;54.862;10.730;2023-08-06T01:55:00;100712.41;;;15.75;86.53
80566;BME280;69915;54.862;10.730;2023-08-06T01:57:25;100727.31;;;15.83;87.06
80566;BME280;69915;54.862;10.730;2023-08-06T01:59:50;100724.88;;;15.82;86.98
80566;BME280;69915;54.862;10.730;2023-08-06T02:02:16;100710.16;;;15.69;87.00
80566;BME280;69915;54.862;10.730;2023-08-06T02:04:41;100733.34;;;15.76;87.01
80566;BME280;69915;54.862;10.730;2023-08-06T02:07:07;100704.00;;;15.63;86.46
80566;BME280;69915;54.862;10.730;2023-08-06T02:09:32;100693.63;;;15.60;86.59
80566;BME280;69915;54.862;10.730;2023-08-06T02:11:58;100718.56;;;15.72;86.65
80566;BME280;69915;54.862;10.730;2023-08-06T02:14:23;100692.03;;;15.59;86.48
80566;BME280;69915;54.862;10.730;2023-08-06T02:16:49;100702.53;;;15.66;86.16
80566;BME280;69915;54.862;10.730;2023-08-06T02:19:15;100682.63;;;15.60;86.40
80566;BME280;69915;54.862;10.730;2023-08-06T02:21:40;100694.78;;;15.59;86.65
80566;BME280;69915;54.862;10.730;2023-08-06T02:24:06;100700.59;;;15.66;86.80
80566;BME280;69915;54.862;10.730;2023-08-06T02:26:31;100704.31;;;15.70;86.90
80566;BME280;69915;54.862;10.730;2023-08-06T02:28:57;100678.41;;;15.54;86.54
80566;BME280;69915;54.862;10.730;2023-08-06T02:31:22;100709.84;;;15.70;86.49
80566;BME280;69915;54.862;10.730;2023-08-06T02:33:47;100724.94;;;15.64;87.01
80566;BME280;69915;54.862;10.730;2023-08-06T02:36:13;100715.03;;;15.63;86.61
80566;BME280;69915;54.862;10.730;2023-08-06T02:38:38;100727.03;;;15.67;85.90
80566;BME280;69915;54.862;10.730;2023-08-06T02:41:04;100713.06;;;15.72;85.66
80566;BME280;69915;54.862;10.730;2023-08-06T02:43:30;100693.16;;;15.58;85.71
80566;BME280;69915;54.862;10.730;2023-08-06T02:45:59;100700.63;;;15.58;85.69
80566;BME280;69915;54.862;10.730;2023-08-06T02:48:25;100712.44;;;15.67;85.33
80566;BME280;69915;54.862;10.730;2023-08-06T02:50:50;100706.91;;;15.67;85.53
80566;BME280;69915;54.862;10.730;2023-08-06T02:53:16;100683.91;;;15.54;85.78
80566;BME280;69915;54.862;10.730;2023-08-06T02:55:46;100683.09;;;15.45;86.12
80566;BME280;69915;54.862;10.730;2023-08-06T02:58:13;100696.56;;;15.55;86.56
80566;BME280;69915;54.862;10.730;2023-08-06T03:00:39;100711.00;;;15.52;86.29
80566;BME280;69915;54.862;10.730;2023-08-06T03:03:04;100689.44;;;15.37;86.33
80566;BME280;69915;54.862;10.730;2023-08-06T03:05:30;100695.25;;;15.44;86.55
80566;BME280;69915;54.862;10.730;2023-08-06T03:07:55;100696.25;;;15.48;86.68
80566;BME280;69915;54.862;10.730;2023-08-06T03:10:21;100688.59;;;15.45;86.50
80566;BME280;69915;54.862;10.730;2023-08-06T03:12:46;100687.16;;;15.48;86.43
80566;BME280;69915;54.862;10.730;2023-08-06T03:15:11;100689.72;;;15.44;86.49
80566;BME280;69915;54.862;10.730;2023-08-06T03:17:37;100691.19;;;15.42;87.47
80566;BME280;69915;54.862;10.730;2023-08-06T03:20:03;100700.47;;;15.37;87.36
80566;BME280;69915;54.862;10.730;2023-08-06T03:22:28;100668.22;;;15.20;87.59
80566;BME280;69915;54.862;10.730;2023-08-06T03:24:54;100676.16;;;15.22;88.17
80566;BME280;69915;54.862;10.730;2023-08-06T03:27:19;100687.50;;;15.20;88.30
80566;BME280;69915;54.862;10.730;2023-08-06T03:29:45;100669.06;;;15.04;88.39
80566;BME280;69915;54.862;10.730;2023-08-06T03:32:10;100680.53;;;14.97;89.13
80566;BME280;69915;54.862;10.730;2023-08-06T03:34:35;100653.97;;;14.84;89.48
80566;BME280;69915;54.862;10.730;2023-08-06T03:37:01;100673.06;;;14.89;89.66
80566;BME280;69915;54.862;10.730;2023-08-06T03:39:26;100675.34;;;14.96;89.99
80566;BME280;69915;54.862;10.730;2023-08-06T03:41:52;100647.81;;;14.79;90.11
80566;BME280;69915;54.862;10.730;2023-08-06T03:44:17;100633.56;;;14.68;90.09
80566;BME280;69915;54.862;10.730;2023-08-06T03:46:43;100660.13;;;14.81;89.89
80566;BME280;69915;54.862;10.730;2023-08-06T03:49:08;100659.78;;;14.74;90.21
80566;BME280;69915;54.862;10.730;2023-08-06T03:51:33;100638.75;;;14.52;90.92
80566;BME280;69915;54.862;10.730;2023-08-06T03:53:59;100662.53;;;14.65;91.13
80566;BME280;69915;54.862;10.730;2023-08-06T03:56:24;100658.34;;;14.77;91.27
80566;BME280;69915;54.862;10.730;2023-08-06T03:58:50;100660.59;;;14.83;91.03
80566;BME280;69915;54.862;10.730;2023-08-06T04:01:16;100656.09;;;14.79;91.04
80566;BME280;69915;54.862;10.730;2023-08-06T04:03:41;100665.63;;;14.98;91.20
80566;BME280;69915;54.862;10.730;2023-08-06T04:06:07;100653.81;;;14.98;90.89
80566;BME280;69915;54.862;10.730;2023-08-06T04:08:32;100650.91;;;14.94;90.62
80566;BME280;69915;54.862;10.730;2023-08-06T04:10:58;100654.13;;;15.05;90.00
80566;BME280;69915;54.862;10.730;2023-08-06T04:13:23;100644.75;;;15.06;89.88
80566;BME280;69915;54.862;10.730;2023-08-06T04:15:49;100637.78;;;15.00;89.29
80566;BME280;69915;54.862;10.730;2023-08-06T04:18:14;100626.13;;;15.03;89.11
80566;BME280;69915;54.862;10.730;2023-08-06T04:20:46;100638.91;;;15.16;88.95
80566;BME280;69915;54.862;10.730;2023-08-06T04:23:12;100642.13;;;15.26;88.40
80566;BME280;69915;54.862;10.730;2023-08-06T04:25:38;100618.47;;;15.17;88.02
80566;BME280;69915;54.862;10.730;2023-08-06T04:28:04;100636.47;;;15.32;87.08
80566;BME280;69915;54.862;10.730;2023-08-06T04:30:29;100604.38;;;15.27;86.90
80566;BME280;69915;54.862;10.730;2023-08-06T04:32:56;100605.66;;;15.30;87.04
80566;BME280;69915;54.862;10.730;2023-08-06T04:35:22;100608.41;;;15.38;86.90
80566;BME280;69915;54.862;10.730;2023-08-06T04:37:47;100620.53;;;15.54;86.34
80566;BME280;69915;54.862;10.730;2023-08-06T04:40:22;100620.22;;;15.56;86.46
80566;BME280;69915;54.862;10.730;2023-08-06T04:42:47;100617.94;;;15.58;86.24
80566;BME280;69915;54.862;10.730;2023-08-06T04:45:13;100623.94;;;15.68;86.01
80566;BME280;69915;54.862;10.730;2023-08-06T04:47:38;100615.16;;;15.66;85.68
80566;BME280;69915;54.862;10.730;2023-08-06T04:50:04;100627.16;;;15.70;85.69
80566;BME280;69915;54.862;10.730;2023-08-06T04:52:29;100605.63;;;15.55;86.38
80566;BME280;69915;54.862;10.730;2023-08-06T04:54:57;100620.16;;;15.73;86.43
80566;BME280;69915;54.862;10.730;2023-08-06T04:57:22;100605.44;;;15.60;86.45
80566;BME280;69915;54.862;10.730;2023-08-06T04:59:48;100624.53;;;15.74;86.07
80566;BME280;69915;54.862;10.730;2023-08-06T05:02:14;100629.72;;;15.75;85.96
80566;BME280;69915;54.862;10.730;2023-08-06T05:04:39;100612.75;;;15.65;86.09
80566;BME280;69915;54.862;10.730;2023-08-06T05:07:05;100620.50;;;15.71;85.46
80566;BME280;69915;54.862;10.730;2023-08-06T05:09:31;100627.47;;;15.77;85.54
80566;BME280;69915;54.862;10.730;2023-08-06T05:11:56;100636.97;;;15.89;84.82
80566;BME280;69915;54.862;10.730;2023-08-06T05:14:22;100610.09;;;15.77;84.28
80566;BME280;69915;54.862;10.730;2023-08-06T05:16:47;100618.34;;;15.86;83.38
80566;BME280;69915;54.862;10.730;2023-08-06T05:19:13;100616.84;;;15.88;83.30
80566;BME280;69915;54.862;10.730;2023-08-06T05:21:38;100628.19;;;15.95;83.42
80566;BME280;69915;54.862;10.730;2023-08-06T05:24:03;100613.28;;;15.88;83.93
80566;BME280;69915;54.862;10.730;2023-08-06T05:26:29;100630.28;;;15.98;83.75
80566;BME280;69915;54.862;10.730;2023-08-06T05:28:54;100600.97;;;15.85;83.12
80566;BME280;69915;54.862;10.730;2023-08-06T05:31:20;100619.72;;;16.00;82.38
80566;BME280;69915;54.862;10.730;2023-08-06T05:33:45;100588.47;;;15.88;81.92
80566;BME280;69915;54.862;10.730;2023-08-06T05:36:11;100597.72;;;15.92;82.20
80566;BME280;69915;54.862;10.730;2023-08-06T05:38:54;100601.69;;;16.03;82.85
80566;BME280;69915;54.862;10.730;2023-08-06T05:41:20;100602.34;;;16.00;82.90
80566;BME280;69915;54.862;10.730;2023-08-06T05:43:45;100574.38;;;15.89;82.44
80566;BME280;69915;54.862;10.730;2023-08-06T05:46:11;100585.66;;;15.96;82.29
80566;BME280;69915;54.862;10.730;2023-08-06T05:48:36;100600.38;;;16.09;81.93
80566;BME280;69915;54.862;10.730;2023-08-06T05:51:02;100585.66;;;15.96;81.82
80566;BME280;69915;54.862;10.730;2023-08-06T05:53:27;100596.19;;;16.03;81.52
80566;BME280;69915;54.862;10.730;2023-08-06T05:55:52;100609.75;;;16.16;81.25
80566;BME280;69915;54.862;10.730;2023-08-06T05:58:18;100608.63;;;16.17;81.19
80566;BME280;69915;54.862;10.730;2023-08-06T06:00:45;100591.91;;;16.14;81.83
80566;BME280;69915;54.862;10.730;2023-08-06T06:03:11;100589.91;;;16.23;81.50
80566;BME280;69915;54.862;10.730;2023-08-06T06:05:39;100597.66;;;16.29;81.07
80566;BME280;69915;54.862;10.730;2023-08-06T06:08:05;100590.66;;;16.32;81.14
80566;BME280;69915;54.862;10.730;2023-08-06T06:10:30;100572.34;;;16.27;81.38
80566;BME280;69915;54.862;10.730;2023-08-06T06:12:56;100572.03;;;16.29;81.05
80566;BME280;69915;54.862;10.730;2023-08-06T06:15:21;100593.97;;;16.46;81.09
80566;BME280;69915;54.862;10.730;2023-08-06T06:17:47;100570.81;;;16.39;80.83
80566;BME280;69915;54.862;10.730;2023-08-06T06:20:12;100590.38;;;16.54;81.08
80566;BME280;69915;54.862;10.730;2023-08-06T06:22:38;100582.56;;;16.56;81.33
80566;BME280;69915;54.862;10.730;2023-08-06T06:25:04;100584.13;;;16.66;82.56
80566;BME280;69915;54.862;10.730;2023-08-06T06:27:29;100580.81;;;16.72;82.07
80566;BME280;69915;54.862;10.730;2023-08-06T06:29:55;100578.97;;;16.76;80.65
80566;BME280;69915;54.862;10.730;2023-08-06T06:32:21;100578.53;;;16.74;81.98
80566;BME280;69915;54.862;10.730;2023-08-06T06:34:47;100536.47;;;16.48;81.70
80566;BME280;69915;54.862;10.730;2023-08-06T06:37:12;100575.16;;;16.69;81.36
80566;BME280;69915;54.862;10.730;2023-08-06T06:39:47;100570.47;;;16.69;82.46
80566;BME280;69915;54.862;10.730;2023-08-06T06:42:12;100574.88;;;16.82;81.20
80566;BME280;69915;54.862;10.730;2023-08-06T06:44:40;100581.94;;;16.92;82.50
80566;BME280;69915;54.862;10.730;2023-08-06T06:47:05;100580.94;;;16.97;80.58
80566;BME280;69915;54.862;10.730;2023-08-06T06:49:31;100554.41;;;16.83;79.46
80566;BME280;69915;54.862;10.730;2023-08-06T06:51:56;100582.53;;;16.98;78.96
80566;BME280;69915;54.862;10.730;2023-08-06T06:54:22;100581.03;;;17.00;79.25
80566;BME280;69915;54.862;10.730;2023-08-06T06:56:47;100571.88;;;17.08;79.66
80566;BME280;69915;54.862;10.730;2023-08-06T06:59:13;100559.06;;;17.04;79.79
80566;BME280;69915;54.862;10.730;2023-08-06T07:01:38;100559.09;;;17.16;78.87
80566;BME280;69915;54.862;10.730;2023-08-06T07:04:04;100584.00;;;17.28;77.85
80566;BME280;69915;54.862;10.730;2023-08-06T07:06:30;100555.78;;;17.22;77.26
80566;BME280;69915;54.862;10.730;2023-08-06T07:08:56;100559.94;;;17.28;78.03
80566;BME280;69915;54.862;10.730;2023-08-06T07:11:22;100563.97;;;17.31;78.29
80566;BME280;69915;54.862;10.730;2023-08-06T07:13:47;100576.91;;;17.39;77.78
80566;BME280;69915;54.862;10.730;2023-08-06T07:16:12;100574.34;;;17.55;77.51
80566;BME280;69915;54.862;10.730;2023-08-06T07:18:38;100578.13;;;17.74;76.28
80566;BME280;69915;54.862;10.730;2023-08-06T07:21:03;100557.41;;;17.68;76.40
80566;BME280;69915;54.862;10.730;2023-08-06T07:23:29;100548.19;;;17.64;76.87
80566;BME280;69915;54.862;10.730;2023-08-06T07:25:54;100547.84;;;17.78;76.86
80566;BME280;69915;54.862;10.730;2023-08-06T07:28:20;100573.88;;;17.89;77.54
80566;BME280;69915;54.862;10.730;2023-08-06T07:30:46;100565.25;;;17.90;75.86
80566;BME280;69915;54.862;10.730;2023-08-06T07:33:12;100540.13;;;17.71;75.43
80566;BME280;69915;54.862;10.730;2023-08-06T07:35:37;100570.53;;;17.95;74.79
80566;BME280;69915;54.862;10.730;2023-08-06T07:38:03;100569.63;;;17.79;75.24
80566;BME280;69915;54.862;10.730;2023-08-06T07:40:28;100562.03;;;17.88;75.78
80566;BME280;69915;54.862;10.730;2023-08-06T07:42:54;100564.56;;;17.81;75.47
80566;BME280;69915;54.862;10.730;2023-08-06T07:45:20;100556.59;;;17.80;74.99
80566;BME280;69915;54.862;10.730;2023-08-06T07:47:45;100551.66;;;17.85;75.42
80566;BME280;69915;54.862;10.730;2023-08-06T07:50:11;100536.91;;;17.69;75.53
80566;BME280;69915;54.862;10.730;2023-08-06T07:52:36;100556.25;;;17.81;75.81
80566;BME280;69915;54.862;10.730;2023-08-06T07:55:02;100555.44;;;17.81;74.65
80566;BME280;69915;54.862;10.730;2023-08-06T07:57:33;100542.06;;;17.83;74.91
80566;BME280;69915;54.862;10.730;2023-08-06T08:00:00;100550.72;;;17.81;73.95
80566;BME280;69915;54.862;10.730;2023-08-06T08:02:25;100534.38;;;17.64;74.57
80566;BME280;69915;54.862;10.730;2023-08-06T08:04:51;100544.38;;;17.81;73.27
80566;BME280;69915;54.862;10.730;2023-08-06T08:07:16;100548.19;;;18.01;73.09
80566;BME280;69915;54.862;10.730;2023-08-06T08:09:42;100552.22;;;18.03;73.78
80566;BME280;69915;54.862;10.730;2023-08-06T08:12:07;100550.03;;;18.09;72.63
80566;BME280;69915;54.862;10.730;2023-08-06T08:14:33;100544.94;;;18.11;71.71
80566;BME280;69915;54.862;10.730;2023-08-06T08:17:05;100527.09;;;17.96;71.90
80566;BME280;69915;54.862;10.730;2023-08-06T08:19:31;100547.00;;;18.26;73.35
80566;BME280;69915;54.862;10.730;2023-08-06T08:21:56;100529.47;;;18.34;71.78
80566;BME280;69915;54.862;10.730;2023-08-06T08:24:22;100523.63;;;18.11;72.69
80566;BME280;69915;54.862;10.730;2023-08-06T08:26:51;100513.81;;;18.14;73.09
80566;BME280;69915;54.862;10.730;2023-08-06T08:29:17;100532.47;;;18.17;71.02
80566;BME280;69915;54.862;10.730;2023-08-06T08:31:42;100546.69;;;18.15;72.92
80566;BME280;69915;54.862;10.730;2023-08-06T08:34:08;100516.25;;;18.15;72.90
80566;BME280;69915;54.862;10.730;2023-08-06T08:36:34;100532.69;;;18.36;74.38
80566;BME280;69915;54.862;10.730;2023-08-06T08:38:59;100536.28;;;18.24;74.71
80566;BME280;69915;54.862;10.730;2023-08-06T08:41:28;100533.16;;;18.26;73.45
80566;BME280;69915;54.862;10.730;2023-08-06T08:43:55;100522.53;;;18.40;73.60
80566;BME280;69915;54.862;10.730;2023-08-06T08:46:22;100546.72;;;18.55;74.01
80566;BME280;69915;54.862;10.730;2023-08-06T08:48:47;100534.84;;;18.55;75.44
80566;BME280;69915;54.862;10.730;2023-08-06T08:51:13;100518.84;;;18.36;74.49
80566;BME280;69915;54.862;10.730;2023-08-06T08:53:40;100521.38;;;18.29;74.35
80566;BME280;69915;54.862;10.730;2023-08-06T08:56:07;100542.09;;;18.47;74.67
80566;BME280;69915;54.862;10.730;2023-08-06T08:58:33;100514.38;;;18.31;74.71
80566;BME280;69915;54.862;10.730;2023-08-06T09:00:59;100542.06;;;18.71;73.74
80566;BME280;69915;54.862;10.730;2023-08-06T09:03:25;100517.38;;;18.66;73.69
80566;BME280;69915;54.862;10.730;2023-08-06T09:05:53;100519.94;;;18.59;74.17
80566;BME280;69915;54.862;10.730;2023-08-06T09:08:24;100534.97;;;18.46;72.89
80566;BME280;69915;54.862;10.730;2023-08-06T09:10:52;100513.34;;;18.24;73.30
80566;BME280;69915;54.862;10.730;2023-08-06T09:13:18;100533.34;;;18.45;73.82
80566;BME280;69915;54.862;10.730;2023-08-06T09:15:45;100532.41;;;18.53;73.86
80566;BME280;69915;54.862;10.730;2023-08-06T09:18:12;100506.63;;;18.37;72.60
80566;BME280;69915;54.862;10.730;2023-08-06T09:20:38;100506.19;;;18.11;73.14
80566;BME280;69915;54.862;10.730;2023-08-06T09:23:10;100530.81;;;18.52;72.94
80566;BME280;69915;54.862;10.730;2023-08-06T09:25:39;100504.25;;;18.63;72.34
80566;BME280;69915;54.862;10.730;2023-08-06T09:28:08;100529.00;;;18.72;72.76
80566;BME280;69915;54.862;10.730;2023-08-06T09:30:35;100504.72;;;18.65;72.56
80566;BME280;69915;54.862;10.730;2023-08-06T09:33:01;100526.88;;;18.81;72.15
80566;BME280;69915;54.862;10.730;2023-08-06T09:35:31;100539.38;;;18.75;72.91
80566;BME280;69915;54.862;10.730;2023-08-06T09:38:07;100548.91;;;18.89;71.96
80566;BME280;69915;54.862;10.730;2023-08-06T09:40:32;100511.88;;;18.54;72.73
80566;BME280;69915;54.862;10.730;2023-08-06T09:42:59;100510.41;;;18.32;72.56
80566;BME280;69915;54.862;10.730;2023-08-06T09:45:36;100538.44;;;18.43;73.32
80566;BME280;69915;54.862;10.730;2023-08-06T09:48:06;100534.50;;;18.44;72.85
80566;BME280;69915;54.862;10.730;2023-08-06T09:50:34;100535.06;;;18.89;72.79
80566;BME280;69915;54.862;10.730;2023-08-06T09:53:04;100524.53;;;18.67;71.29
80566;BME280;69915;54.862;10.730;2023-08-06T09:55:32;100530.13;;;18.83;72.01
80566;BME280;69915;54.862;10.730;2023-08-06T09:57:58;100510.69;;;18.95;71.15
80566;BME280;69915;54.862;10.730;2023-08-06T10:00:25;100533.50;;;19.04;71.92
80566;BME280;69915;54.862;10.730;2023-08-06T10:02:52;100530.94;;;18.83;70.41
80566;BME280;69915;54.862;10.730;2023-08-06T10:05:20;100529.47;;;18.74;72.31
80566;BME280;69915;54.862;10.730;2023-08-06T10:07:47;100530.88;;;18.68;71.02
80566;BME280;69915;54.862;10.730;2023-08-06T10:10:13;100521.34;;;18.53;72.17
80566;BME280;69915;54.862;10.730;2023-08-06T10:12:58;100519.34;;;18.66;72.91
80566;BME280;69915;54.862;10.730;2023-08-06T10:15:27;100501.97;;;18.41;71.72
80566;BME280;69915;54.862;10.730;2023-08-06T10:17:57;100501.31;;;18.32;73.25
80566;BME280;69915;54.862;10.730;2023-08-06T10:20:24;100511.06;;;18.54;73.94
80566;BME280;69915;54.862;10.730;2023-08-06T10:23:03;100507.91;;;18.67;72.72
80566;BME280;69915;54.862;10.730;2023-08-06T10:25:33;100518.25;;;18.82;71.95
80566;BME280;69915;54.862;10.730;2023-08-06T10:27:59;100493.16;;;18.63;71.35
80566;BME280;69915;54.862;10.730;2023-08-06T10:30:29;100509.97;;;18.70;71.68
80566;BME280;69915;54.862;10.730;2023-08-06T10:33:00;100490.00;;;18.49;72.50
80566;BME280;69915;54.862;10.730;2023-08-06T10:36:10;100485.94;;;18.59;71.98
80566;BME280;69915;54.862;10.730;2023-08-06T10:38:33;100503.56;;;18.82;72.88
80566;BME280;69915;54.862;10.730;2023-08-06T10:43:35;100486.63;;;18.56;71.09
80566;BME280;69915;54.862;10.730;2023-08-06T10:46:08;100482.28;;;18.70;71.44
80566;BME280;69915;54.862;10.730;2023-08-06T10:48:41;100490.06;;;18.65;68.80
80566;BME280;69915;54.862;10.730;2023-08-06T10:51:11;100508.78;;;18.83;70.13
80566;BME280;69915;54.862;10.730;2023-08-06T10:53:50;100499.13;;;18.77;68.23
80566;BME280;69915;54.862;10.730;2023-08-06T10:56:21;100474.19;;;18.77;68.32
80566;BME280;69915;54.862;10.730;2023-08-06T10:58:55;100478.47;;;18.90;68.80
80566;BME280;69915;54.862;10.730;2023-08-06T11:01:24;100495.03;;;19.02;69.67
80566;BME280;69915;54.862;10.730;2023-08-06T11:03:50;100505.44;;;18.78;67.83
80566;BME280;69915;54.862;10.730;2023-08-06T11:06:20;100491.09;;;18.60;69.12
80566;BME280;69915;54.862;10.730;2023-08-06T11:08:49;100499.56;;;18.79;68.17
80566;BME280;69915;54.862;10.730;2023-08-06T11:11:16;100479.97;;;18.72;68.36
80566;BME280;69915;54.862;10.730;2023-08-06T11:13:44;100488.03;;;18.93;69.32
80566;BME280;69915;54.862;10.730;2023-08-06T11:16:13;100455.59;;;18.78;68.59
80566;BME280;69915;54.862;10.730;2023-08-06T11:18:40;100448.22;;;18.42;69.61
80566;BME280;69915;54.862;10.730;2023-08-06T11:21:06;100475.25;;;18.73;70.05
80566;BME280;69915;54.862;10.730;2023-08-06T11:23:34;100449.25;;;18.77;69.47
80566;BME280;69915;54.862;10.730;2023-08-06T11:25:59;100444.53;;;18.93;68.42
80566;BME280;69915;54.862;10.730;2023-08-06T11:28:25;100442.72;;;18.70;69.44
80566;BME280;69915;54.862;10.730;2023-08-06T11:30:51;100441.53;;;18.98;69.61
80566;BME280;69915;54.862;10.730;2023-08-06T11:33:21;100454.84;;;19.40;69.14
80566;BME280;69915;54.862;10.730;2023-08-06T11:35:48;100442.06;;;19.20;68.66
80566;BME280;69915;54.862;10.730;2023-08-06T11:38:14;100440.44;;;19.03;69.06
80566;BME280;69915;54.862;10.730;2023-08-06T11:40:39;100442.41;;;19.02;69.88
80566;BME280;69915;54.862;10.730;2023-08-06T11:43:08;100443.94;;;19.16;69.18
80566;BME280;69915;54.862;10.730;2023-08-06T11:45:37;100427.72;;;19.02;70.10
80566;BME280;69915;54.862;10.730;2023-08-06T11:48:03;100433.44;;;18.93;70.15
80566;BME280;69915;54.862;10.730;2023-08-06T11:50:29;100446.88;;;19.07;69.24
80566;BME280;69915;54.862;10.730;2023-08-06T11:53:00;100436.31;;;18.97;70.21
80566;BME280;69915;54.862;10.730;2023-08-06T11:55:27;100430.69;;;18.93;69.92
80566;BME280;69915;54.862;10.730;2023-08-06T11:57:56;100444.44;;;19.06;70.46
80566;BME280;69915;54.862;10.730;2023-08-06T12:00:25;100451.09;;;19.17;70.11
80566;BME280;69915;54.862;10.730;2023-08-06T12:02:51;100415.94;;;19.05;69.86
80566;BME280;69915;54.862;10.730;2023-08-06T12:05:29;100426.25;;;19.20;70.26
80566;BME280;69915;54.862;10.730;2023-08-06T12:07:56;100420.94;;;19.15;69.24
80566;BME280;69915;54.862;10.730;2023-08-06T12:10:24;100402.63;;;19.11;69.51
80566;BME280;69915;54.862;10.730;2023-08-06T12:12:50;100413.25;;;19.09;69.87
80566;BME280;69915;54.862;10.730;2023-08-06T12:15:16;100418.16;;;19.31;69.68
80566;BME280;69915;54.862;10.730;2023-08-06T12:17:41;100417.66;;;19.41;70.29
80566;BME280;69915;54.862;10.730;2023-08-06T12:20:08;100413.16;;;19.52;69.93
80566;BME280;69915;54.862;10.730;2023-08-06T12:22:34;100413.69;;;19.58;69.56
80566;BME280;69915;54.862;10.730;2023-08-06T12:25:18;100419.81;;;19.47;68.74
80566;BME280;69915;54.862;10.730;2023-08-06T12:27:44;100418.53;;;19.45;67.87
80566;BME280;69915;54.862;10.730;2023-08-06T12:30:11;100417.09;;;19.51;68.53
80566;BME280;69915;54.862;10.730;2023-08-06T12:32:38;100397.25;;;19.49;69.18
80566;BME280;69915;54.862;10.730;2023-08-06T12:35:04;100407.59;;;19.68;68.04
80566;BME280;69915;54.862;10.730;2023-08-06T12:37:30;100389.13;;;19.40;67.88
80566;BME280;69915;54.862;10.730;2023-08-06T12:39:55;100407.19;;;19.50;69.02
80566;BME280;69915;54.862;10.730;2023-08-06T12:42:21;100393.06;;;19.39;67.93
80566;BME280;69915;54.862;10.730;2023-08-06T12:44:48;100400.31;;;19.44;69.20